createdAt,value
2022-12-01T00:01:14.091Z,14.32
2022-12-01T00:03:25.570Z,14.63
2022-12-01T00:05:33.567Z,15.80
2022-12-01T00:07:41.721Z,16.98
2022-12-01T00:10:02.129Z,14.95
2022-12-01T00:12:11.185Z,15.07
2022-12-01T00:14:19.335Z,14.45
2022-12-01T00:16:28.004Z,15.68
2022-12-01T00:18:38.628Z,14.45
2022-12-01T00:20:51.177Z,15.77
2022-12-01T00:22:58.952Z,13.70
2022-12-01T00:25:07.732Z,16.08
2022-12-01T00:27:15.672Z,15.50
2022-12-01T00:29:23.626Z,15.68
2022-12-01T00:31:31.951Z,15.15
2022-12-01T00:33:43.159Z,15.13
2022-12-01T00:35:51.279Z,15.43
2022-12-01T00:38:00.185Z,15.82
2022-12-01T00:40:09.853Z,15.48
2022-12-01T00:42:20.944Z,17.55
2022-12-01T00:44:28.879Z,14.95
2022-12-01T00:46:37.691Z,15.68
2022-12-01T00:48:48.554Z,15.80
2022-12-01T00:50:58.512Z,14.88
2022-12-01T00:53:06.267Z,15.55
2022-12-01T00:55:14.336Z,16.80
2022-12-01T00:57:22.231Z,16.80
2022-12-01T00:59:30.414Z,14.80
2022-12-01T01:01:38.273Z,15.55
2022-12-01T01:03:48.696Z,16.58
2022-12-01T01:05:56.725Z,16.33
2022-12-01T01:08:04.715Z,16.27
2022-12-01T01:10:14.098Z,15.82
2022-12-01T01:12:22.200Z,15.85
2022-12-01T01:14:30.384Z,16.08
2022-12-01T01:16:39.765Z,18.13
2022-12-01T01:18:50.402Z,17.65
2022-12-01T01:20:59.768Z,16.60
2022-12-01T01:23:07.885Z,16.20
2022-12-01T01:25:15.839Z,17.02
2022-12-01T01:27:24.801Z,16.38
2022-12-01T01:29:32.720Z,17.30
2022-12-01T01:31:41.794Z,16.42
2022-12-01T01:33:52.856Z,17.77
2022-12-01T01:36:02.217Z,16.98
2022-12-01T01:38:09.960Z,16.55
2022-12-01T01:40:18.373Z,17.58
2022-12-01T01:42:26.320Z,17.70
2022-12-01T01:44:52.195Z,16.55
2022-12-01T01:47:00.157Z,16.73
2022-12-01T01:49:14.643Z,19.25
2022-12-01T01:51:27.444Z,16.70
2022-12-01T01:53:35.816Z,16.08
2022-12-01T01:55:43.972Z,16.13
2022-12-01T01:57:52.038Z,16.88
2022-12-01T02:00:05.525Z,16.80
2022-12-01T02:02:20.634Z,16.88
2022-12-01T02:04:32.564Z,16.35
2022-12-01T02:06:40.741Z,17.48
2022-12-01T02:08:48.820Z,17.17
2022-12-01T02:11:25.684Z,16.40
2022-12-01T02:13:44.960Z,16.58
2022-12-01T02:16:03.632Z,15.68
2022-12-01T02:18:25.518Z,16.98
2022-12-01T02:21:10.706Z,16.88
2022-12-01T02:24:03.122Z,15.38
2022-12-01T02:26:31.562Z,15.93
2022-12-01T02:28:59.553Z,16.08
2022-12-01T02:31:15.627Z,15.73
2022-12-01T02:33:29.788Z,16.15
2022-12-01T02:35:45.509Z,17.85
2022-12-01T02:38:04.486Z,17.75
2022-12-01T02:40:20.433Z,16.13
2022-12-01T02:42:53.884Z,17.13
2022-12-01T02:45:06.104Z,16.15
2022-12-01T02:47:18.968Z,15.10
2022-12-01T02:49:32.744Z,16.50
2022-12-01T02:51:44.789Z,15.43
2022-12-01T02:53:53.267Z,16.88
2022-12-01T02:56:02.031Z,17.20
2022-12-01T02:58:16.564Z,16.90
2022-12-01T03:00:24.545Z,15.98
2022-12-01T03:02:43.615Z,16.60
2022-12-01T03:05:05.744Z,17.55
2022-12-01T03:07:27.252Z,16.55
2022-12-01T03:09:49.891Z,15.40
2022-12-01T03:12:09.791Z,16.65
2022-12-01T03:14:26.523Z,16.75
2022-12-01T03:16:42.059Z,15.48
2022-12-01T03:18:58.294Z,18.42
2022-12-01T03:21:11.313Z,17.10
2022-12-01T03:23:24.012Z,17.25
2022-12-01T03:25:34.664Z,15.75
2022-12-01T03:28:19.363Z,17.70
2022-12-01T03:30:17.489Z,16.42
2022-12-01T03:32:31.751Z,17.10
2022-12-01T03:34:47.720Z,16.95
2022-12-01T03:36:59.681Z,15.88
2022-12-01T03:39:16.633Z,18.40
2022-12-01T03:41:31.196Z,17.02
2022-12-01T03:43:48.225Z,15.68
2022-12-01T03:46:02.727Z,15.13
2022-12-01T03:48:11.460Z,16.85
2022-12-01T03:50:22.168Z,16.92
2022-12-01T03:52:42.147Z,15.63
2022-12-01T03:54:58.835Z,17.27
2022-12-01T03:57:14.338Z,17.23
2022-12-01T03:59:26.008Z,17.33
2022-12-01T04:01:36.381Z,17.25
2022-12-01T04:03:45.770Z,18.23
2022-12-01T04:05:58.136Z,18.85
2022-12-01T04:08:06.329Z,15.88
2022-12-01T04:10:15.030Z,16.17
2022-12-01T04:12:29.604Z,17.92
2022-12-01T04:14:37.470Z,15.40
2022-12-01T04:16:45.531Z,17.95
2022-12-01T04:18:53.502Z,16.40
2022-12-01T04:21:04.727Z,17.70
2022-12-01T04:23:33.835Z,15.50
2022-12-01T04:25:41.948Z,16.80
2022-12-01T04:27:50.109Z,17.77
2022-12-01T04:30:02.384Z,15.93
2022-12-01T04:32:10.349Z,15.95
2022-12-01T04:34:18.621Z,15.85
2022-12-01T04:36:31.281Z,16.15
2022-12-01T04:38:40.171Z,16.60
2022-12-01T04:40:47.912Z,15.98
2022-12-01T04:42:56.073Z,15.95
2022-12-01T04:45:04.003Z,16.48
2022-12-01T04:47:12.331Z,16.00
2022-12-01T04:49:20.729Z,16.67
2022-12-01T04:51:31.502Z,16.48
2022-12-01T04:53:40.830Z,16.60
2022-12-01T04:55:48.674Z,16.60
2022-12-01T04:57:58.155Z,15.85
2022-12-01T05:00:13.112Z,17.10
2022-12-01T05:02:21.003Z,16.42
2022-12-01T05:04:28.796Z,16.20
2022-12-01T05:06:39.532Z,15.52
2022-12-01T05:08:47.663Z,15.65
2022-12-01T05:10:58.708Z,15.18
2022-12-01T05:13:07.557Z,15.05
2022-12-01T05:15:15.716Z,15.75
2022-12-01T05:17:23.656Z,15.45
2022-12-01T05:19:44.031Z,14.63
2022-12-01T05:21:55.903Z,16.10
2022-12-01T05:24:03.739Z,16.45
2022-12-01T05:26:12.542Z,15.80
2022-12-01T05:28:20.562Z,16.10
2022-12-01T05:30:29.039Z,15.43
2022-12-01T05:32:38.146Z,16.52
2022-12-01T05:34:46.028Z,14.95
2022-12-01T05:36:57.608Z,15.25
2022-12-01T05:39:05.741Z,15.82
2022-12-01T05:41:13.634Z,15.65
2022-12-01T05:43:27.154Z,15.95
2022-12-01T05:45:37.063Z,16.20
2022-12-01T05:47:44.992Z,17.23
2022-12-01T05:49:52.781Z,18.40
2022-12-01T05:52:03.717Z,17.52
2022-12-01T05:54:11.571Z,16.75
2022-12-01T05:56:19.511Z,18.00
2022-12-01T05:58:27.861Z,16.85
2022-12-01T06:00:39.619Z,17.25
2022-12-01T06:02:51.829Z,17.33
2022-12-01T06:04:59.866Z,17.40
2022-12-01T06:07:10.250Z,18.48
2022-12-01T06:09:19.729Z,17.42
2022-12-01T06:11:28.644Z,17.40
2022-12-01T06:13:36.379Z,18.50
2022-12-01T06:15:47.680Z,18.63
2022-12-01T06:17:55.418Z,18.42
2022-12-01T06:20:06.565Z,19.40
2022-12-01T06:22:19.817Z,18.30
2022-12-01T06:24:28.126Z,16.38
2022-12-01T06:26:36.592Z,17.77
2022-12-01T06:28:44.364Z,19.02
2022-12-01T06:30:54.498Z,18.45
2022-12-01T06:33:06.122Z,18.42
2022-12-01T06:35:16.439Z,18.10
2022-12-01T06:37:27.189Z,20.75
2022-12-01T06:39:35.187Z,17.33
2022-12-01T06:41:43.146Z,19.40
2022-12-01T06:43:51.341Z,18.85
2022-12-01T06:46:02.342Z,18.77
2022-12-01T06:48:12.776Z,20.17
2022-12-01T06:50:21.618Z,19.00
2022-12-01T06:52:32.449Z,17.67
2022-12-01T06:54:41.787Z,19.38
2022-12-01T06:56:50.078Z,18.55
2022-12-01T06:59:01.261Z,19.45
2022-12-01T07:01:13.309Z,18.88
2022-12-01T07:06:06.057Z,18.85
2022-12-01T07:08:20.174Z,19.50
2022-12-01T07:10:28.451Z,20.00
2022-12-01T07:12:37.029Z,18.05
2022-12-01T07:14:46.543Z,18.92
2022-12-01T07:16:54.458Z,19.42
2022-12-01T07:19:03.177Z,18.33
2022-12-01T07:21:16.010Z,19.95
2022-12-01T07:23:26.407Z,20.80
2022-12-01T07:25:35.132Z,18.52
2022-12-01T07:27:53.012Z,19.17
2022-12-01T07:30:00.879Z,18.70
2022-12-01T07:32:09.178Z,19.17
2022-12-01T07:34:17.089Z,19.45
2022-12-01T07:36:25.183Z,19.88
2022-12-01T07:38:37.577Z,20.50
2022-12-01T07:40:45.341Z,19.85
2022-12-01T07:42:53.925Z,19.58
2022-12-01T07:45:02.876Z,20.08
2022-12-01T07:47:10.616Z,18.95
2022-12-01T07:49:18.848Z,19.85
2022-12-01T07:51:28.432Z,20.92
2022-12-01T07:53:39.323Z,22.13
2022-12-01T07:55:51.215Z,22.15
2022-12-01T07:58:02.128Z,20.90
2022-12-01T08:00:11.636Z,20.50
2022-12-01T08:02:23.821Z,19.38
2022-12-01T08:04:32.230Z,20.27
2022-12-01T08:06:41.016Z,19.67
2022-12-01T08:08:52.347Z,21.00
2022-12-01T08:11:04.536Z,19.10
2022-12-01T08:13:17.112Z,20.70
2022-12-01T08:15:25.423Z,21.33
2022-12-01T08:17:33.237Z,20.25
2022-12-01T08:19:42.264Z,20.08
2022-12-01T08:21:51.320Z,21.20
2022-12-01T08:24:01.898Z,20.80
2022-12-01T08:26:12.619Z,21.10
2022-12-01T08:28:20.983Z,22.05
2022-12-01T08:30:29.317Z,20.23
2022-12-01T08:32:37.538Z,22.42
2022-12-01T08:34:49.326Z,21.85
2022-12-01T08:37:00.855Z,21.92
2022-12-01T08:39:11.993Z,21.75
2022-12-01T08:41:20.111Z,21.73
2022-12-01T08:43:56.111Z,20.48
2022-12-01T08:45:56.854Z,20.02
2022-12-01T08:48:04.691Z,21.75
2022-12-01T08:50:13.828Z,20.60
2022-12-01T08:52:21.775Z,21.13
2022-12-01T08:54:32.129Z,21.70
2022-12-01T08:56:43.106Z,21.48
2022-12-01T08:58:52.386Z,21.33
2022-12-01T09:01:08.047Z,20.15
2022-12-01T09:03:18.886Z,20.13
2022-12-01T09:05:28.177Z,22.63
2022-12-01T09:07:36.435Z,21.52
2022-12-01T09:09:48.739Z,20.27
2022-12-01T09:11:58.689Z,21.20
2022-12-01T09:14:06.886Z,21.00
2022-12-01T09:16:17.322Z,20.52
2022-12-01T09:18:26.022Z,19.80
2022-12-01T09:20:34.968Z,20.20
2022-12-01T09:22:42.785Z,21.85
2022-12-01T09:24:53.108Z,20.55
2022-12-01T09:27:03.431Z,21.75
2022-12-01T09:29:14.205Z,21.45
2022-12-01T09:31:23.519Z,20.13
2022-12-01T09:33:31.689Z,20.50
2022-12-01T09:35:39.858Z,20.67
2022-12-01T09:37:47.657Z,21.48
2022-12-01T09:40:00.198Z,19.42
2022-12-01T09:42:13.004Z,20.45
2022-12-01T09:44:33.097Z,20.23
2022-12-01T09:46:46.308Z,19.85
2022-12-01T09:48:57.376Z,19.63
2022-12-01T09:51:05.171Z,21.30
2022-12-01T09:53:22.933Z,21.42
2022-12-01T09:55:36.639Z,20.75
2022-12-01T09:57:48.140Z,19.40
2022-12-01T09:59:57.670Z,19.33
2022-12-01T10:02:14.369Z,21.30
2022-12-01T10:04:27.916Z,20.55
2022-12-01T10:06:41.563Z,19.67
2022-12-01T10:08:59.799Z,20.30
2022-12-01T10:11:20.543Z,20.23
2022-12-01T10:13:30.567Z,20.30
2022-12-01T10:15:50.033Z,20.55
2022-12-01T10:18:13.194Z,20.13
2022-12-01T10:20:28.858Z,19.98
2022-12-01T10:23:03.404Z,18.65
2022-12-01T10:25:23.706Z,17.80
2022-12-01T10:27:46.535Z,17.88
2022-12-01T10:30:06.419Z,18.40
2022-12-01T10:32:20.092Z,18.20
2022-12-01T10:34:30.656Z,19.52
2022-12-01T10:37:02.078Z,18.63
2022-12-01T10:39:16.858Z,18.67
2022-12-01T10:41:27.522Z,19.10
2022-12-01T10:43:44.454Z,17.92
2022-12-01T10:45:52.915Z,18.00
2022-12-01T10:48:19.978Z,18.67
2022-12-01T10:50:32.827Z,18.70
2022-12-01T10:52:42.510Z,17.67
2022-12-01T10:54:51.777Z,18.83
2022-12-01T10:57:00.407Z,18.65
2022-12-01T10:59:27.340Z,18.95
2022-12-01T11:01:37.443Z,17.85
2022-12-01T11:03:47.662Z,18.40
2022-12-01T11:05:58.434Z,19.10
2022-12-01T11:08:06.399Z,17.67
2022-12-01T11:10:26.260Z,18.23
2022-12-01T11:12:39.274Z,19.38
2022-12-01T11:14:54.011Z,18.52
2022-12-01T11:17:18.504Z,18.77
2022-12-01T11:19:33.308Z,18.02
2022-12-01T11:21:49.425Z,17.65
2022-12-01T11:23:59.368Z,17.88
2022-12-01T11:26:17.913Z,27.35
2022-12-01T11:28:26.450Z,20.15
2022-12-01T11:30:38.857Z,18.67
2022-12-01T11:32:55.740Z,18.27
2022-12-01T11:35:09.189Z,17.70
2022-12-01T11:37:21.723Z,18.77
2022-12-01T11:39:34.590Z,18.63
2022-12-01T11:41:43.676Z,18.27
2022-12-01T11:44:01.237Z,17.23
2022-12-01T11:46:12.987Z,18.10
2022-12-01T11:48:29.042Z,19.40
2022-12-01T11:50:40.211Z,18.60
2022-12-01T11:52:49.831Z,16.35
2022-12-01T11:55:04.405Z,18.52
2022-12-01T11:58:12.603Z,19.55
2022-12-01T11:59:46.758Z,18.25
2022-12-01T12:02:23.458Z,17.83
2022-12-01T12:04:50.067Z,18.08
2022-12-01T12:07:06.011Z,18.30
2022-12-01T12:09:43.403Z,18.77
2022-12-01T12:12:04.119Z,17.65
2022-12-01T12:14:40.105Z,18.05
2022-12-01T12:17:01.627Z,19.48
2022-12-01T12:19:33.690Z,18.10
2022-12-01T12:21:56.698Z,16.40
2022-12-01T12:24:28.598Z,18.30
2022-12-01T12:26:43.405Z,17.13
2022-12-01T12:29:13.612Z,15.40
2022-12-01T12:31:31.383Z,15.45
2022-12-01T12:34:14.254Z,18.45
2022-12-01T12:36:37.242Z,16.67
2022-12-01T12:38:57.613Z,18.83
2022-12-01T12:41:19.441Z,17.98
2022-12-01T12:43:38.008Z,17.45
2022-12-01T12:46:03.837Z,18.13
2022-12-01T12:48:26.210Z,15.93
2022-12-01T12:50:39.609Z,17.02
2022-12-01T12:52:54.531Z,17.17
2022-12-01T12:55:08.898Z,15.95
2022-12-01T12:57:26.024Z,17.70
2022-12-01T12:59:39.964Z,17.70
2022-12-01T13:02:03.158Z,17.23
2022-12-01T13:04:19.412Z,16.58
2022-12-01T13:06:32.562Z,16.70
2022-12-01T13:08:46.270Z,18.17
2022-12-01T13:11:02.240Z,17.75
2022-12-01T13:13:22.455Z,19.42
2022-12-01T13:15:32.742Z,19.15
2022-12-01T13:17:44.830Z,17.48
2022-12-01T13:19:52.787Z,16.83
2022-12-01T13:22:03.676Z,15.98
2022-12-01T13:24:22.767Z,17.08
2022-12-01T13:26:32.960Z,17.15
2022-12-01T13:28:45.873Z,16.17
2022-12-01T13:31:05.609Z,18.95
2022-12-01T13:33:20.668Z,17.45
2022-12-01T13:35:32.378Z,17.27
2022-12-01T13:37:42.139Z,18.35
2022-12-01T13:39:57.429Z,16.70
2022-12-01T13:42:09.372Z,17.63
2022-12-01T13:44:26.599Z,17.48
2022-12-01T13:46:52.641Z,17.35
2022-12-01T13:49:02.436Z,15.70
2022-12-01T13:51:10.416Z,16.17
2022-12-01T13:53:28.928Z,14.05
2022-12-01T13:55:59.118Z,15.50
2022-12-01T13:58:28.270Z,17.83
2022-12-01T14:00:37.614Z,16.85
2022-12-01T14:02:46.419Z,16.30
2022-12-01T14:04:54.244Z,14.70
2022-12-01T14:07:26.583Z,16.55
2022-12-01T14:09:38.688Z,14.80
2022-12-01T14:11:59.506Z,16.42
2022-12-01T14:14:26.151Z,18.00
2022-12-01T14:16:52.842Z,16.83
2022-12-01T14:19:02.068Z,17.70
2022-12-01T14:21:12.538Z,15.90
2022-12-01T14:23:29.034Z,16.38
2022-12-01T14:25:37.652Z,15.82
2022-12-01T14:27:48.463Z,16.60
2022-12-01T14:29:56.409Z,16.75
2022-12-01T14:32:28.475Z,16.63
2022-12-01T14:34:40.301Z,16.15
2022-12-01T14:36:51.971Z,18.17
2022-12-01T14:39:06.810Z,15.23
2022-12-01T14:41:28.641Z,17.92
2022-12-01T14:43:54.617Z,15.77
2022-12-01T14:46:10.548Z,16.80
2022-12-01T14:48:22.953Z,15.07
2022-12-01T14:50:43.504Z,15.85
2022-12-01T14:52:59.136Z,17.20
2022-12-01T14:55:11.179Z,15.45
2022-12-01T14:57:27.414Z,16.67
2022-12-01T14:59:37.948Z,16.55
2022-12-01T15:01:45.876Z,16.65
2022-12-01T15:03:58.010Z,17.35
2022-12-01T15:06:09.423Z,16.83
2022-12-01T15:10:55.277Z,17.17
2022-12-01T15:13:16.355Z,16.67
2022-12-01T15:15:29.169Z,17.33
2022-12-01T15:17:39.295Z,15.57
2022-12-01T15:19:47.197Z,16.58
2022-12-01T15:21:55.743Z,16.30
2022-12-01T15:24:07.148Z,17.02
2022-12-01T15:26:22.289Z,16.73
2022-12-01T15:28:35.095Z,16.08
2022-12-01T15:30:49.180Z,14.38
2022-12-01T15:32:57.421Z,16.85
2022-12-01T15:35:05.725Z,16.00
2022-12-01T15:37:16.735Z,16.75
2022-12-01T15:39:35.613Z,16.08
2022-12-01T15:41:46.885Z,16.25
2022-12-01T15:43:59.075Z,17.55
2022-12-01T15:46:19.079Z,16.75
2022-12-01T15:48:31.917Z,17.38
2022-12-01T15:50:46.431Z,16.70
2022-12-01T15:52:55.153Z,15.55
2022-12-01T15:55:08.452Z,15.68
2022-12-01T15:57:20.690Z,16.48
2022-12-01T15:59:34.791Z,17.20
2022-12-01T16:01:47.406Z,16.63
2022-12-01T16:03:58.988Z,17.90
2022-12-01T16:06:07.108Z,15.48
2022-12-01T16:08:20.320Z,16.77
2022-12-01T16:10:32.078Z,17.77
2022-12-01T16:12:40.215Z,17.00
2022-12-01T16:14:54.164Z,15.43
2022-12-01T16:17:05.136Z,16.77
2022-12-01T16:19:39.036Z,16.80
2022-12-01T16:21:49.698Z,17.33
2022-12-01T16:24:02.937Z,16.55
2022-12-01T16:26:11.742Z,16.05
2022-12-01T16:28:25.939Z,16.58
2022-12-01T16:30:41.289Z,15.65
2022-12-01T16:33:01.638Z,17.15
2022-12-01T16:35:23.770Z,16.88
2022-12-01T16:37:31.696Z,17.45
2022-12-01T16:39:39.898Z,18.50
2022-12-01T16:41:48.185Z,17.20
2022-12-01T16:44:20.647Z,18.60
2022-12-01T16:46:24.796Z,18.83
2022-12-01T16:48:37.716Z,19.17
2022-12-01T16:50:45.718Z,17.35
2022-12-01T16:52:53.912Z,18.50
2022-12-01T16:55:02.941Z,18.73
2022-12-01T16:57:14.741Z,17.25
2022-12-01T16:59:23.031Z,16.42
2022-12-01T17:01:32.499Z,18.13
2022-12-01T17:03:43.234Z,16.73
2022-12-01T17:05:52.546Z,18.20
2022-12-01T17:08:00.908Z,17.90
2022-12-01T17:10:10.018Z,19.30
2022-12-01T17:12:18.181Z,18.48
2022-12-01T17:14:26.388Z,18.55
2022-12-01T17:16:34.350Z,20.20
2022-12-01T17:18:47.125Z,19.17
2022-12-01T17:21:01.655Z,18.65
2022-12-01T17:23:11.714Z,19.80
2022-12-01T17:25:20.342Z,18.92
2022-12-01T17:27:28.671Z,17.60
2022-12-01T17:29:39.478Z,18.45
2022-12-01T17:31:49.567Z,19.73
2022-12-01T17:34:00.128Z,19.92
2022-12-01T17:36:13.656Z,19.65
2022-12-01T17:38:21.455Z,21.13
2022-12-01T17:40:30.195Z,19.05
2022-12-01T17:42:38.156Z,20.30
2022-12-01T17:44:46.082Z,20.30
2022-12-01T17:46:54.097Z,21.15
2022-12-01T17:49:08.638Z,20.38
2022-12-01T17:51:18.134Z,18.98
2022-12-01T17:53:28.491Z,20.67
2022-12-01T17:55:36.395Z,21.70
2022-12-01T17:57:44.571Z,20.38
2022-12-01T17:59:52.399Z,20.58
2022-12-01T18:02:02.986Z,20.77
2022-12-01T18:04:13.511Z,19.20
2022-12-01T18:06:22.341Z,20.00
2022-12-01T18:08:32.502Z,21.73
2022-12-01T18:10:41.326Z,19.70
2022-12-01T18:12:49.235Z,19.38
2022-12-01T18:14:57.631Z,20.38
2022-12-01T18:17:06.227Z,18.73
2022-12-01T18:19:16.810Z,20.08
2022-12-01T18:21:27.238Z,19.13
2022-12-01T18:23:35.888Z,20.40
2022-12-01T18:25:44.921Z,20.63
2022-12-01T18:27:58.930Z,19.67
2022-12-01T18:30:07.977Z,20.65
2022-12-01T18:32:16.816Z,20.80
2022-12-01T18:34:29.547Z,18.63
2022-12-01T18:36:40.497Z,20.30
2022-12-01T18:38:48.781Z,19.40
2022-12-01T18:41:00.141Z,16.95
2022-12-01T18:43:08.485Z,19.48
2022-12-01T18:45:20.742Z,18.90
2022-12-01T18:47:29.261Z,18.13
2022-12-01T18:49:39.720Z,19.77
2022-12-01T18:51:47.620Z,19.52
2022-12-01T18:53:57.221Z,18.33
2022-12-01T18:56:06.509Z,17.90
2022-12-01T18:58:14.356Z,17.67
2022-12-01T19:00:23.516Z,18.92
2022-12-01T19:02:32.388Z,18.20
2022-12-01T19:04:42.890Z,17.70
2022-12-01T19:06:50.917Z,17.42
2022-12-01T19:09:03.371Z,19.10
2022-12-01T19:11:11.235Z,18.85
2022-12-01T19:13:21.558Z,18.13
2022-12-01T19:15:33.029Z,17.10
2022-12-01T19:17:41.165Z,19.05
2022-12-01T19:19:55.567Z,18.67
2022-12-01T19:22:06.073Z,17.63
2022-12-01T19:24:14.354Z,18.75
2022-12-01T19:26:25.645Z,17.63
2022-12-01T19:28:37.619Z,20.17
2022-12-01T19:30:51.928Z,18.33
2022-12-01T19:33:06.249Z,20.13
2022-12-01T19:35:18.347Z,19.45
2022-12-01T19:37:27.753Z,19.63
2022-12-01T19:39:35.930Z,20.58
2022-12-01T19:41:44.885Z,19.42
2022-12-01T19:43:52.908Z,19.27
2022-12-01T19:46:01.060Z,19.52
2022-12-01T19:48:09.625Z,28.67
2022-12-01T19:50:20.435Z,20.02
2022-12-01T19:52:28.834Z,20.77
2022-12-01T19:54:37.776Z,20.48
2022-12-01T19:56:46.276Z,22.48
2022-12-01T19:58:54.273Z,20.50
2022-12-01T20:01:07.804Z,19.95
2022-12-01T20:03:15.701Z,20.48
2022-12-01T20:05:27.360Z,21.02
2022-12-01T20:07:36.520Z,21.52
2022-12-01T20:09:49.733Z,20.95
2022-12-01T20:11:58.151Z,21.58
2022-12-01T20:14:07.855Z,19.38
2022-12-01T20:16:17.552Z,20.88
2022-12-01T20:18:26.042Z,20.83
2022-12-01T20:20:37.053Z,20.70
2022-12-01T20:22:45.116Z,19.40
2022-12-01T20:24:53.148Z,21.63
2022-12-01T20:27:01.445Z,21.25
2022-12-01T20:29:13.022Z,20.48
2022-12-01T20:31:23.168Z,20.70
2022-12-01T20:33:32.024Z,20.10
2022-12-01T20:35:42.896Z,19.77
2022-12-01T20:37:50.866Z,20.05
2022-12-01T20:39:58.892Z,19.92
2022-12-01T20:42:07.558Z,19.63
2022-12-01T20:44:19.114Z,22.80
2022-12-01T20:46:28.309Z,20.83
2022-12-01T20:48:36.853Z,19.38
2022-12-01T20:50:47.649Z,21.85
2022-12-01T20:52:55.796Z,20.02
2022-12-01T20:55:05.027Z,21.45
2022-12-01T20:57:12.927Z,20.88
2022-12-01T20:59:20.854Z,19.83
2022-12-01T21:01:29.307Z,22.58
2022-12-01T21:03:37.545Z,20.65
2022-12-01T21:05:48.859Z,20.25
2022-12-01T21:07:57.504Z,19.17
2022-12-01T21:10:06.364Z,20.17
2022-12-01T21:12:29.257Z,20.67
2022-12-01T21:14:41.510Z,21.95
2022-12-01T21:16:53.464Z,23.13
2022-12-01T21:19:06.526Z,20.30
2022-12-01T21:21:25.189Z,20.15
2022-12-01T21:23:33.385Z,21.10
2022-12-01T21:25:42.640Z,21.08
2022-12-01T21:27:51.376Z,21.33
2022-12-01T21:29:59.734Z,21.35
2022-12-01T21:32:16.449Z,20.95
2022-12-01T21:34:27.720Z,20.83
2022-12-01T21:36:38.387Z,20.92
2022-12-01T21:38:48.382Z,20.50
2022-12-01T21:40:57.411Z,22.55
2022-12-01T21:43:20.252Z,21.63
2022-12-01T21:45:31.321Z,21.30
2022-12-01T21:47:39.425Z,20.23
2022-12-01T21:49:48.444Z,22.10
2022-12-01T21:51:59.014Z,20.95
2022-12-01T21:54:13.258Z,21.27
2022-12-01T21:56:25.818Z,20.52
2022-12-01T21:58:37.127Z,20.00
2022-12-01T22:00:45.630Z,21.83
2022-12-01T22:02:55.729Z,20.17
2022-12-01T22:05:04.017Z,20.42
2022-12-01T22:07:18.524Z,23.08
2022-12-01T22:09:29.860Z,20.02
2022-12-01T22:11:38.156Z,20.80
2022-12-01T22:13:48.413Z,22.60
2022-12-01T22:15:57.547Z,23.60
2022-12-01T22:18:13.993Z,23.42
2022-12-01T22:20:25.897Z,20.67
2022-12-01T22:22:39.520Z,22.38
2022-12-01T22:24:50.386Z,21.63
2022-12-01T22:27:12.514Z,21.27
2022-12-01T22:29:29.358Z,22.08
2022-12-01T22:31:37.261Z,21.90
2022-12-01T22:33:45.638Z,20.85
2022-12-01T22:35:55.199Z,20.90
2022-12-01T22:38:22.330Z,19.83
2022-12-01T22:40:40.896Z,20.88
2022-12-01T22:42:48.817Z,22.15
2022-12-01T22:44:57.902Z,20.70
2022-12-01T22:47:06.502Z,21.30
2022-12-01T22:49:20.844Z,20.30
2022-12-01T22:51:42.465Z,21.02
2022-12-01T22:53:54.937Z,20.60
2022-12-01T22:56:04.237Z,20.67
2022-12-01T22:58:25.247Z,20.80
2022-12-01T23:00:34.413Z,22.58
2022-12-01T23:02:43.057Z,21.20
2022-12-01T23:04:53.073Z,20.70
2022-12-01T23:07:12.164Z,21.63
2022-12-01T23:09:23.463Z,22.80
2022-12-01T23:11:31.955Z,21.92
2022-12-01T23:13:41.080Z,20.83
2022-12-01T23:15:50.578Z,22.00
2022-12-01T23:17:58.610Z,21.40
2022-12-01T23:20:27.662Z,20.33
2022-12-01T23:22:35.763Z,21.05
2022-12-01T23:24:46.904Z,18.92
2022-12-01T23:26:56.012Z,21.00
2022-12-01T23:29:04.564Z,22.98
2022-12-01T23:31:13.326Z,21.50
2022-12-01T23:33:23.842Z,20.15
2022-12-01T23:35:32.315Z,22.27
2022-12-01T23:37:42.367Z,22.33
2022-12-01T23:39:54.003Z,22.10
2022-12-01T23:42:03.488Z,22.10
2022-12-01T23:44:21.232Z,23.13
2022-12-01T23:46:31.041Z,23.67
2022-12-01T23:48:42.554Z,21.92
2022-12-01T23:50:53.585Z,21.75
2022-12-01T23:53:02.034Z,22.77
2022-12-01T23:55:21.807Z,22.73
2022-12-01T23:57:33.487Z,21.90
2022-12-01T23:59:41.633Z,21.48
